Current Weather

Michigan City Muni-Phillips Fld

Michigan City, Indiana (KMGC)

Report from: Saturday, July 13, 2024 9:55 PM EDT
Current time: Saturday, July 13, 2024 10:18 PM EDT

Nearby weather – Weather history – Daily summaries
Weather forecast

Temperature26.0°C (78.8°F)
Dew point17.0°C (62.6°F)
Winds 5 kts (2.6 m/s, 5.8 mph) South-Southwest (210°)
Visibility10 mi. (16.1 km)
Clouds Scattered clouds 3,800 ft. (1,158 m)
Altimeter30.07 in.Hg (1018 mB)
Relative humidity58 %
Density altitude1,368 ft. (417 m)
Remarks Fully automated report
Automated weather observing station with precipitation discriminator
Flight conditions Visual Meteorological Conditions
Raw dataKMGC 140155Z AUTO 21005KT 10SM SCT038 26/17 A3007 RMK AO2
An error has occurred. This application may no longer respond until reloaded. Reload 🗙